sensor_id;sensor_type;location;lat;lon;timestamp;pressure;altitude;pressure_sealevel;temperature;humidity
5413;BME280;2729;50.056;8.678;2023-05-02T00:01:58;100349.63;;;16.04;100.00
5413;BME280;2729;50.056;8.678;2023-05-02T00:04:24;100342.00;;;15.98;100.00
5413;BME280;2729;50.056;8.678;2023-05-02T00:06:51;100340.66;;;15.89;100.00
5413;BME280;2729;50.056;8.678;2023-05-02T00:09:18;100346.34;;;15.99;100.00
5413;BME280;2729;50.056;8.678;2023-05-02T00:11:44;100347.34;;;15.96;100.00
5413;BME280;2729;50.056;8.678;2023-05-02T00:14:10;100350.25;;;15.90;100.00
5413;BME280;2729;50.056;8.678;2023-05-02T00:16:36;100353.03;;;15.87;100.00
5413;BME280;2729;50.056;8.678;2023-05-02T00:19:01;100344.56;;;15.81;100.00
5413;BME280;2729;50.056;8.678;2023-05-02T00:21:28;100354.78;;;15.68;100.00
5413;BME280;2729;50.056;8.678;2023-05-02T00:23:54;100351.16;;;15.70;100.00
5413;BME280;2729;50.056;8.678;2023-05-02T00:26:22;100344.84;;;15.74;100.00
5413;BME280;2729;50.056;8.678;2023-05-02T00:28:49;100352.09;;;15.69;100.00
5413;BME280;2729;50.056;8.678;2023-05-02T00:31:15;100348.13;;;15.59;100.00
5413;BME280;2729;50.056;8.678;2023-05-02T00:33:41;100344.16;;;15.49;100.00
5413;BME280;2729;50.056;8.678;2023-05-02T00:36:17;100346.34;;;15.39;100.00
5413;BME280;2729;50.056;8.678;2023-05-02T00:38:44;100353.78;;;15.30;100.00
5413;BME280;2729;50.056;8.678;2023-05-02T00:41:10;100348.63;;;15.27;100.00
5413;BME280;2729;50.056;8.678;2023-05-02T00:43:37;100357.06;;;15.15;100.00
5413;BME280;2729;50.056;8.678;2023-05-02T00:46:06;100355.34;;;15.13;100.00
5413;BME280;2729;50.056;8.678;2023-05-02T00:48:32;100352.06;;;15.29;100.00
5413;BME280;2729;50.056;8.678;2023-05-02T00:51:01;100356.97;;;15.16;100.00
5413;BME280;2729;50.056;8.678;2023-05-02T00:53:27;100356.31;;;15.11;100.00
5413;BME280;2729;50.056;8.678;2023-05-02T00:55:53;100365.84;;;14.93;100.00
5413;BME280;2729;50.056;8.678;2023-05-02T00:58:19;100360.56;;;14.93;100.00
5413;BME280;2729;50.056;8.678;2023-05-02T01:00:59;100355.81;;;14.81;100.00
5413;BME280;2729;50.056;8.678;2023-05-02T01:03:37;100363.41;;;14.67;100.00
5413;BME280;2729;50.056;8.678;2023-05-02T01:06:18;100361.88;;;14.61;100.00
5413;BME280;2729;50.056;8.678;2023-05-02T01:14:20;100378.69;;;14.34;100.00
5413;BME280;2729;50.056;8.678;2023-05-02T01:16:47;100376.31;;;14.28;100.00
5413;BME280;2729;50.056;8.678;2023-05-02T01:19:24;100381.50;;;14.29;100.00
5413;BME280;2729;50.056;8.678;2023-05-02T01:21:52;100377.34;;;14.24;100.00
5413;BME280;2729;50.056;8.678;2023-05-02T01:24:24;100380.44;;;14.11;100.00
5413;BME280;2729;50.056;8.678;2023-05-02T01:27:10;100390.63;;;13.72;100.00
5413;BME280;2729;50.056;8.678;2023-05-02T01:29:40;100393.25;;;13.72;100.00
5413;BME280;2729;50.056;8.678;2023-05-02T01:32:08;100395.97;;;13.69;100.00
5413;BME280;2729;50.056;8.678;2023-05-02T01:34:37;100398.56;;;13.71;100.00
5413;BME280;2729;50.056;8.678;2023-05-02T01:37:04;100391.16;;;13.82;100.00
5413;BME280;2729;50.056;8.678;2023-05-02T01:39:33;100400.53;;;13.64;100.00
5413;BME280;2729;50.056;8.678;2023-05-02T01:42:00;100401.69;;;13.80;100.00
5413;BME280;2729;50.056;8.678;2023-05-02T01:44:29;100406.16;;;13.54;100.00
5413;BME280;2729;50.056;8.678;2023-05-02T01:46:55;100402.94;;;13.45;100.00
5413;BME280;2729;50.056;8.678;2023-05-02T01:49:23;100406.31;;;13.49;100.00
5413;BME280;2729;50.056;8.678;2023-05-02T01:51:50;100411.78;;;13.43;100.00
5413;BME280;2729;50.056;8.678;2023-05-02T01:54:17;100407.38;;;13.43;100.00
5413;BME280;2729;50.056;8.678;2023-05-02T01:56:45;100418.59;;;13.22;100.00
5413;BME280;2729;50.056;8.678;2023-05-02T01:59:14;100417.06;;;13.15;100.00
5413;BME280;2729;50.056;8.678;2023-05-02T02:01:42;100425.22;;;13.06;100.00
5413;BME280;2729;50.056;8.678;2023-05-02T02:04:12;100437.38;;;13.08;100.00
5413;BME280;2729;50.056;8.678;2023-05-02T02:06:41;100441.59;;;13.12;100.00
5413;BME280;2729;50.056;8.678;2023-05-02T02:09:09;100442.81;;;13.02;100.00
5413;BME280;2729;50.056;8.678;2023-05-02T02:11:37;100437.38;;;13.08;100.00
5413;BME280;2729;50.056;8.678;2023-05-02T02:14:13;100440.75;;;13.12;100.00
5413;BME280;2729;50.056;8.678;2023-05-02T02:16:42;100445.13;;;13.11;100.00
5413;BME280;2729;50.056;8.678;2023-05-02T02:19:09;100438.88;;;13.17;100.00
5413;BME280;2729;50.056;8.678;2023-05-02T02:21:39;100442.47;;;13.13;100.00
5413;BME280;2729;50.056;8.678;2023-05-02T02:24:07;100445.09;;;13.13;100.00
5413;BME280;2729;50.056;8.678;2023-05-02T02:26:35;100447.00;;;13.08;100.00
5413;BME280;2729;50.056;8.678;2023-05-02T02:29:02;100455.81;;;13.05;100.00
5413;BME280;2729;50.056;8.678;2023-05-02T02:31:32;100448.81;;;13.06;100.00
5413;BME280;2729;50.056;8.678;2023-05-02T02:34:00;100456.53;;;13.10;100.00
5413;BME280;2729;50.056;8.678;2023-05-02T02:36:35;100456.38;;;13.15;100.00
5413;BME280;2729;50.056;8.678;2023-05-02T02:39:30;100455.00;;;13.03;100.00
5413;BME280;2729;50.056;8.678;2023-05-02T02:45:21;100468.84;;;12.79;100.00
5413;BME280;2729;50.056;8.678;2023-05-02T02:47:53;100468.28;;;12.97;100.00
5413;BME280;2729;50.056;8.678;2023-05-02T02:53:25;100469.56;;;12.84;100.00
5413;BME280;2729;50.056;8.678;2023-05-02T02:55:56;100469.25;;;12.65;100.00
5413;BME280;2729;50.056;8.678;2023-05-02T03:01:10;100473.03;;;12.84;100.00
5413;BME280;2729;50.056;8.678;2023-05-02T03:03:41;100476.31;;;12.63;100.00
5413;BME280;2729;50.056;8.678;2023-05-02T03:06:08;100474.69;;;12.59;100.00
5413;BME280;2729;50.056;8.678;2023-05-02T03:08:41;100480.09;;;12.53;100.00
5413;BME280;2729;50.056;8.678;2023-05-02T03:11:11;100474.34;;;12.42;100.00
5413;BME280;2729;50.056;8.678;2023-05-02T03:13:37;100482.22;;;12.40;100.00
5413;BME280;2729;50.056;8.678;2023-05-02T03:16:43;100489.34;;;12.35;100.00
5413;BME280;2729;50.056;8.678;2023-05-02T03:19:12;100485.38;;;12.22;100.00
5413;BME280;2729;50.056;8.678;2023-05-02T03:21:38;100487.41;;;12.42;100.00
5413;BME280;2729;50.056;8.678;2023-05-02T03:24:10;100491.44;;;12.53;100.00
5413;BME280;2729;50.056;8.678;2023-05-02T03:26:37;100488.06;;;12.50;100.00
5413;BME280;2729;50.056;8.678;2023-05-02T03:29:05;100498.63;;;12.47;100.00
5413;BME280;2729;50.056;8.678;2023-05-02T03:31:36;100499.03;;;12.63;100.00
5413;BME280;2729;50.056;8.678;2023-05-02T03:34:03;100506.19;;;12.56;100.00
5413;BME280;2729;50.056;8.678;2023-05-02T03:36:29;100511.25;;;12.62;100.00
5413;BME280;2729;50.056;8.678;2023-05-02T03:38:55;100512.47;;;12.80;100.00
5413;BME280;2729;50.056;8.678;2023-05-02T03:41:21;100522.50;;;12.66;100.00
5413;BME280;2729;50.056;8.678;2023-05-02T03:43:55;100520.19;;;12.84;100.00
5413;BME280;2729;50.056;8.678;2023-05-02T03:46:23;100524.34;;;12.92;100.00
5413;BME280;2729;50.056;8.678;2023-05-02T03:48:49;100534.47;;;13.04;100.00
5413;BME280;2729;50.056;8.678;2023-05-02T03:51:16;100537.03;;;13.05;100.00
5413;BME280;2729;50.056;8.678;2023-05-02T03:53:45;100544.34;;;12.94;100.00
5413;BME280;2729;50.056;8.678;2023-05-02T03:56:11;100544.75;;;12.80;100.00
5413;BME280;2729;50.056;8.678;2023-05-02T03:58:47;100548.63;;;12.97;100.00
5413;BME280;2729;50.056;8.678;2023-05-02T04:01:17;100547.38;;;12.80;100.00
5413;BME280;2729;50.056;8.678;2023-05-02T04:03:47;100546.06;;;12.95;100.00
5413;BME280;2729;50.056;8.678;2023-05-02T04:06:14;100546.81;;;13.00;100.00
5413;BME280;2729;50.056;8.678;2023-05-02T04:08:43;100548.28;;;12.79;100.00
5413;BME280;2729;50.056;8.678;2023-05-02T04:11:09;100552.03;;;12.71;100.00
5413;BME280;2729;50.056;8.678;2023-05-02T04:13:35;100544.56;;;12.86;100.00
5413;BME280;2729;50.056;8.678;2023-05-02T04:16:01;100540.69;;;12.41;100.00
5413;BME280;2729;50.056;8.678;2023-05-02T04:18:30;100546.34;;;12.56;100.00
5413;BME280;2729;50.056;8.678;2023-05-02T04:20:58;100554.97;;;12.60;100.00
5413;BME280;2729;50.056;8.678;2023-05-02T04:23:24;100554.66;;;12.40;100.00
5413;BME280;2729;50.056;8.678;2023-05-02T04:25:55;100565.50;;;12.57;100.00
5413;BME280;2729;50.056;8.678;2023-05-02T04:28:28;100562.69;;;12.65;100.00
5413;BME280;2729;50.056;8.678;2023-05-02T04:30:55;100573.03;;;12.69;100.00
5413;BME280;2729;50.056;8.678;2023-05-02T04:33:22;100572.47;;;12.58;100.00
5413;BME280;2729;50.056;8.678;2023-05-02T04:35:50;100579.59;;;12.53;100.00
5413;BME280;2729;50.056;8.678;2023-05-02T04:38:17;100586.88;;;12.73;100.00
5413;BME280;2729;50.056;8.678;2023-05-02T04:40:44;100586.63;;;12.82;100.00
5413;BME280;2729;50.056;8.678;2023-05-02T04:43:10;100602.34;;;12.82;100.00
5413;BME280;2729;50.056;8.678;2023-05-02T04:45:45;100604.38;;;13.03;100.00
5413;BME280;2729;50.056;8.678;2023-05-02T04:48:17;100606.09;;;13.04;100.00
5413;BME280;2729;50.056;8.678;2023-05-02T04:50:44;100614.63;;;13.11;100.00
5413;BME280;2729;50.056;8.678;2023-05-02T04:53:10;100618.84;;;13.16;100.00
5413;BME280;2729;50.056;8.678;2023-05-02T04:55:37;100619.25;;;13.32;100.00
5413;BME280;2729;50.056;8.678;2023-05-02T04:58:03;100625.88;;;13.44;100.00
5413;BME280;2729;50.056;8.678;2023-05-02T05:00:30;100628.97;;;13.57;100.00
5413;BME280;2729;50.056;8.678;2023-05-02T05:02:56;100627.72;;;13.68;100.00
5413;BME280;2729;50.056;8.678;2023-05-02T05:05:22;100628.53;;;13.70;100.00
5413;BME280;2729;50.056;8.678;2023-05-02T05:07:48;100636.16;;;13.78;100.00
5413;BME280;2729;50.056;8.678;2023-05-02T05:10:16;100641.06;;;13.89;100.00
5413;BME280;2729;50.056;8.678;2023-05-02T05:12:44;100644.28;;;13.97;100.00
5413;BME280;2729;50.056;8.678;2023-05-02T05:15:11;100655.44;;;14.03;100.00
5413;BME280;2729;50.056;8.678;2023-05-02T05:17:38;100649.19;;;13.81;100.00
5413;BME280;2729;50.056;8.678;2023-05-02T05:20:05;100654.69;;;14.00;100.00
5413;BME280;2729;50.056;8.678;2023-05-02T05:22:37;100660.19;;;14.19;100.00
5413;BME280;2729;50.056;8.678;2023-05-02T05:25:04;100657.25;;;14.28;100.00
5413;BME280;2729;50.056;8.678;2023-05-02T05:27:32;100660.41;;;14.37;100.00
5413;BME280;2729;50.056;8.678;2023-05-02T05:29:59;100663.56;;;14.48;100.00
5413;BME280;2729;50.056;8.678;2023-05-02T05:32:25;100663.25;;;14.58;100.00
5413;BME280;2729;50.056;8.678;2023-05-02T05:34:52;100672.13;;;14.54;100.00
5413;BME280;2729;50.056;8.678;2023-05-02T05:37:19;100673.31;;;14.45;100.00
5413;BME280;2729;50.056;8.678;2023-05-02T05:39:47;100678.03;;;14.60;100.00
5413;BME280;2729;50.056;8.678;2023-05-02T05:42:13;100688.84;;;14.76;100.00
5413;BME280;2729;50.056;8.678;2023-05-02T05:44:41;100697.50;;;14.79;100.00
5413;BME280;2729;50.056;8.678;2023-05-02T05:47:07;100695.56;;;14.85;100.00
5413;BME280;2729;50.056;8.678;2023-05-02T05:49:33;100700.19;;;14.78;100.00
5413;BME280;2729;50.056;8.678;2023-05-02T05:52:01;100695.72;;;14.80;100.00
5413;BME280;2729;50.056;8.678;2023-05-02T05:54:27;100701.63;;;14.87;100.00
5413;BME280;2729;50.056;8.678;2023-05-02T05:56:53;100697.97;;;14.91;100.00
5413;BME280;2729;50.056;8.678;2023-05-02T05:59:19;100708.38;;;14.94;100.00
5413;BME280;2729;50.056;8.678;2023-05-02T06:01:46;100710.63;;;15.04;100.00
5413;BME280;2729;50.056;8.678;2023-05-02T06:04:14;100715.19;;;14.99;100.00
5413;BME280;2729;50.056;8.678;2023-05-02T06:06:44;100713.31;;;15.03;100.00
5413;BME280;2729;50.056;8.678;2023-05-02T06:09:10;100720.19;;;14.82;100.00
5413;BME280;2729;50.056;8.678;2023-05-02T06:11:36;100717.88;;;14.98;100.00
5413;BME280;2729;50.056;8.678;2023-05-02T06:14:03;100718.72;;;14.98;100.00
5413;BME280;2729;50.056;8.678;2023-05-02T06:16:29;100721.59;;;15.16;100.00
5413;BME280;2729;50.056;8.678;2023-05-02T06:18:55;100716.56;;;15.09;100.00
5413;BME280;2729;50.056;8.678;2023-05-02T06:21:21;100715.72;;;15.09;100.00
5413;BME280;2729;50.056;8.678;2023-05-02T06:23:47;100725.72;;;15.23;100.00
5413;BME280;2729;50.056;8.678;2023-05-02T06:26:13;100733.38;;;15.29;100.00
5413;BME280;2729;50.056;8.678;2023-05-02T06:28:39;100727.91;;;15.35;100.00
5413;BME280;2729;50.056;8.678;2023-05-02T06:31:05;100729.22;;;15.47;100.00
5413;BME280;2729;50.056;8.678;2023-05-02T06:33:32;100732.47;;;15.53;100.00
5413;BME280;2729;50.056;8.678;2023-05-02T06:35:58;100736.06;;;15.51;100.00
5413;BME280;2729;50.056;8.678;2023-05-02T06:38:24;100742.13;;;15.53;100.00
5413;BME280;2729;50.056;8.678;2023-05-02T06:40:51;100742.53;;;15.67;100.00
5413;BME280;2729;50.056;8.678;2023-05-02T06:43:17;100747.16;;;15.60;100.00
5413;BME280;2729;50.056;8.678;2023-05-02T06:45:43;100757.56;;;15.63;100.00
5413;BME280;2729;50.056;8.678;2023-05-02T06:48:10;100753.31;;;15.59;100.00
5413;BME280;2729;50.056;8.678;2023-05-02T06:50:36;100760.41;;;15.81;100.00
5413;BME280;2729;50.056;8.678;2023-05-02T06:53:05;100761.84;;;15.89;100.00
5413;BME280;2729;50.056;8.678;2023-05-02T06:55:31;100764.97;;;15.99;100.00
5413;BME280;2729;50.056;8.678;2023-05-02T06:57:58;100762.56;;;15.93;100.00
5413;BME280;2729;50.056;8.678;2023-05-02T07:00:23;100767.28;;;15.85;100.00
5413;BME280;2729;50.056;8.678;2023-05-02T07:02:49;100769.47;;;15.73;100.00
5413;BME280;2729;50.056;8.678;2023-05-02T07:05:15;100770.25;;;15.75;100.00
5413;BME280;2729;50.056;8.678;2023-05-02T07:07:42;100773.41;;;15.85;100.00
5413;BME280;2729;50.056;8.678;2023-05-02T07:10:26;100767.09;;;15.89;100.00
5413;BME280;2729;50.056;8.678;2023-05-02T07:12:52;100771.81;;;16.03;100.00
5413;BME280;2729;50.056;8.678;2023-05-02T07:15:18;100772.56;;;16.06;100.00
5413;BME280;2729;50.056;8.678;2023-05-02T07:17:44;100780.66;;;16.02;100.00
5413;BME280;2729;50.056;8.678;2023-05-02T07:20:13;100789.94;;;15.89;100.00
5413;BME280;2729;50.056;8.678;2023-05-02T07:22:40;100789.78;;;15.70;100.00
5413;BME280;2729;50.056;8.678;2023-05-02T07:25:06;100787.84;;;15.75;100.00
5413;BME280;2729;50.056;8.678;2023-05-02T07:27:32;100788.31;;;16.08;100.00
5413;BME280;2729;50.056;8.678;2023-05-02T07:29:58;100795.28;;;16.09;100.00
5413;BME280;2729;50.056;8.678;2023-05-02T07:32:24;100801.59;;;16.05;100.00
5413;BME280;2729;50.056;8.678;2023-05-02T07:34:51;100797.31;;;16.24;100.00
5413;BME280;2729;50.056;8.678;2023-05-02T07:37:21;100808.81;;;16.00;100.00
5413;BME280;2729;50.056;8.678;2023-05-02T07:39:47;100803.50;;;16.23;100.00
5413;BME280;2729;50.056;8.678;2023-05-02T07:42:13;100801.78;;;16.22;100.00
5413;BME280;2729;50.056;8.678;2023-05-02T07:44:39;100805.69;;;16.12;100.00
5413;BME280;2729;50.056;8.678;2023-05-02T07:47:07;100806.19;;;16.44;100.00
5413;BME280;2729;50.056;8.678;2023-05-02T07:49:33;100809.69;;;16.22;100.00
5413;BME280;2729;50.056;8.678;2023-05-02T07:52:03;100805.16;;;16.48;100.00
5413;BME280;2729;50.056;8.678;2023-05-02T07:54:29;100806.31;;;16.40;100.00
5413;BME280;2729;50.056;8.678;2023-05-02T07:56:55;100808.22;;;16.37;100.00
5413;BME280;2729;50.056;8.678;2023-05-02T07:59:23;100813.50;;;16.37;100.00
5413;BME280;2729;50.056;8.678;2023-05-02T08:01:52;100821.56;;;16.32;100.00
5413;BME280;2729;50.056;8.678;2023-05-02T08:04:18;100819.84;;;16.31;100.00
5413;BME280;2729;50.056;8.678;2023-05-02T08:06:44;100816.13;;;16.37;100.00
5413;BME280;2729;50.056;8.678;2023-05-02T08:09:10;100819.25;;;16.47;100.00
5413;BME280;2729;50.056;8.678;2023-05-02T08:11:36;100822.50;;;16.31;100.00
5413;BME280;2729;50.056;8.678;2023-05-02T08:14:02;100823.53;;;16.27;100.00
5413;BME280;2729;50.056;8.678;2023-05-02T08:16:28;100826.53;;;16.18;100.00
5413;BME280;2729;50.056;8.678;2023-05-02T08:18:53;100829.41;;;16.34;100.00
5413;BME280;2729;50.056;8.678;2023-05-02T08:21:19;100827.94;;;16.05;100.00
5413;BME280;2729;50.056;8.678;2023-05-02T08:23:45;100834.03;;;16.05;100.00
5413;BME280;2729;50.056;8.678;2023-05-02T08:26:11;100835.66;;;15.86;100.00
5413;BME280;2729;50.056;8.678;2023-05-02T08:28:37;100837.22;;;15.68;100.00
5413;BME280;2729;50.056;8.678;2023-05-02T08:31:03;100838.06;;;15.92;100.00
5413;BME280;2729;50.056;8.678;2023-05-02T08:33:35;100837.94;;;15.72;100.00
5413;BME280;2729;50.056;8.678;2023-05-02T08:36:09;100847.84;;;15.89;100.00
5413;BME280;2729;50.056;8.678;2023-05-02T08:38:35;100850.25;;;15.71;100.00
5413;BME280;2729;50.056;8.678;2023-05-02T08:41:01;100851.06;;;15.73;100.00
5413;BME280;2729;50.056;8.678;2023-05-02T08:43:28;100855.47;;;15.73;100.00
5413;BME280;2729;50.056;8.678;2023-05-02T08:45:58;100858.56;;;16.29;100.00
5413;BME280;2729;50.056;8.678;2023-05-02T08:48:25;100860.94;;;16.14;100.00
5413;BME280;2729;50.056;8.678;2023-05-02T08:50:52;100861.88;;;16.34;98.89
5413;BME280;2729;50.056;8.678;2023-05-02T08:53:20;100866.84;;;16.64;96.85
5413;BME280;2729;50.056;8.678;2023-05-02T08:55:47;100868.16;;;16.76;95.32
5413;BME280;2729;50.056;8.678;2023-05-02T08:58:13;100873.81;;;16.66;93.96
5413;BME280;2729;50.056;8.678;2023-05-02T09:00:41;100878.22;;;16.66;92.70
5413;BME280;2729;50.056;8.678;2023-05-02T09:03:31;100884.25;;;16.46;94.81
5413;BME280;2729;50.056;8.678;2023-05-02T09:06:08;100882.97;;;16.56;92.89
5413;BME280;2729;50.056;8.678;2023-05-02T09:08:36;100884.81;;;16.54;91.23
5413;BME280;2729;50.056;8.678;2023-05-02T09:11:02;100897.91;;;16.79;94.63
5413;BME280;2729;50.056;8.678;2023-05-02T09:13:30;100897.19;;;16.52;93.67
5413;BME280;2729;50.056;8.678;2023-05-02T09:18:28;100903.53;;;16.70;90.98
5413;BME280;2729;50.056;8.678;2023-05-02T09:20:57;100904.00;;;16.58;90.42
5413;BME280;2729;50.056;8.678;2023-05-02T09:23:40;100901.41;;;16.34;92.41
5413;BME280;2729;50.056;8.678;2023-05-02T09:26:14;100903.34;;;16.29;90.79
5413;BME280;2729;50.056;8.678;2023-05-02T09:28:45;100904.81;;;16.82;87.38
5413;BME280;2729;50.056;8.678;2023-05-02T09:31:16;100908.94;;;16.67;88.00
5413;BME280;2729;50.056;8.678;2023-05-02T09:33:43;100901.94;;;16.66;87.49
5413;BME280;2729;50.056;8.678;2023-05-02T09:36:16;100909.66;;;16.92;86.88
5413;BME280;2729;50.056;8.678;2023-05-02T09:38:44;100901.13;;;17.08;84.49
5413;BME280;2729;50.056;8.678;2023-05-02T09:41:10;100907.56;;;17.00;81.96
5413;BME280;2729;50.056;8.678;2023-05-02T09:43:37;100901.59;;;17.17;83.31
5413;BME280;2729;50.056;8.678;2023-05-02T09:46:07;100901.47;;;17.20;82.23
5413;BME280;2729;50.056;8.678;2023-05-02T09:48:53;100902.41;;;17.40;80.83
5413;BME280;2729;50.056;8.678;2023-05-02T09:51:21;100894.16;;;17.47;80.86
5413;BME280;2729;50.056;8.678;2023-05-02T09:53:48;100898.84;;;17.81;81.99
5413;BME280;2729;50.056;8.678;2023-05-02T09:56:14;100904.03;;;18.22;83.06
5413;BME280;2729;50.056;8.678;2023-05-02T09:58:40;100897.41;;;18.32;79.25
5413;BME280;2729;50.056;8.678;2023-05-02T10:01:06;100903.13;;;18.03;83.12
5413;BME280;2729;50.056;8.678;2023-05-02T10:03:36;100899.38;;;18.08;78.08
5413;BME280;2729;50.056;8.678;2023-05-02T10:06:03;100898.09;;;17.78;74.82
5413;BME280;2729;50.056;8.678;2023-05-02T10:08:32;100905.56;;;17.88;78.19
5413;BME280;2729;50.056;8.678;2023-05-02T10:10:59;100900.75;;;17.78;79.78
5413;BME280;2729;50.056;8.678;2023-05-02T10:13:26;100908.88;;;17.53;80.16
5413;BME280;2729;50.056;8.678;2023-05-02T10:16:01;100904.84;;;17.44;81.84
5413;BME280;2729;50.056;8.678;2023-05-02T10:18:32;100913.59;;;17.65;80.06
5413;BME280;2729;50.056;8.678;2023-05-02T10:21:15;100913.06;;;18.16;82.46
5413;BME280;2729;50.056;8.678;2023-05-02T10:23:42;100910.72;;;17.71;79.99
5413;BME280;2729;50.056;8.678;2023-05-02T10:26:15;100906.81;;;17.80;79.99
5413;BME280;2729;50.056;8.678;2023-05-02T10:28:41;100911.56;;;17.51;78.29
5413;BME280;2729;50.056;8.678;2023-05-02T10:31:12;100907.03;;;17.75;78.87
5413;BME280;2729;50.056;8.678;2023-05-02T10:33:39;100905.69;;;17.85;80.10
5413;BME280;2729;50.056;8.678;2023-05-02T10:36:09;100910.56;;;17.94;77.25
5413;BME280;2729;50.056;8.678;2023-05-02T10:38:38;100912.00;;;18.02;75.84
5413;BME280;2729;50.056;8.678;2023-05-02T10:41:08;100910.94;;;18.06;76.71
5413;BME280;2729;50.056;8.678;2023-05-02T10:43:37;100912.34;;;17.94;75.98
5413;BME280;2729;50.056;8.678;2023-05-02T10:46:33;100909.69;;;17.94;73.87
5413;BME280;2729;50.056;8.678;2023-05-02T10:49:11;100894.59;;;18.54;77.96
5413;BME280;2729;50.056;8.678;2023-05-02T10:51:41;100892.31;;;19.18;75.76
5413;BME280;2729;50.056;8.678;2023-05-02T10:59:37;100885.69;;;19.10;71.06
5413;BME280;2729;50.056;8.678;2023-05-02T11:05:05;100888.72;;;17.91;74.36
5413;BME280;2729;50.056;8.678;2023-05-02T11:07:33;100888.47;;;17.77;75.30
5413;BME280;2729;50.056;8.678;2023-05-02T11:12:49;100882.72;;;17.87;75.03
5413;BME280;2729;50.056;8.678;2023-05-02T11:18:12;100880.75;;;18.49;76.06
5413;BME280;2729;50.056;8.678;2023-05-02T11:20:40;100880.84;;;18.83;73.50
5413;BME280;2729;50.056;8.678;2023-05-02T11:25:46;100879.00;;;19.54;73.67
5413;BME280;2729;50.056;8.678;2023-05-02T11:31:04;100867.63;;;19.52;64.47
5413;BME280;2729;50.056;8.678;2023-05-02T11:33:31;100864.41;;;19.46;61.95
5413;BME280;2729;50.056;8.678;2023-05-02T11:35:57;100870.50;;;18.96;64.64
5413;BME280;2729;50.056;8.678;2023-05-02T11:38:24;100865.06;;;19.34;64.49
5413;BME280;2729;50.056;8.678;2023-05-02T11:40:56;100863.00;;;19.73;66.00
5413;BME280;2729;50.056;8.678;2023-05-02T11:43:23;100855.00;;;20.06;63.93
5413;BME280;2729;50.056;8.678;2023-05-02T11:45:51;100852.94;;;19.80;57.20
5413;BME280;2729;50.056;8.678;2023-05-02T11:48:19;100848.44;;;19.98;58.03
5413;BME280;2729;50.056;8.678;2023-05-02T11:50:52;100852.63;;;20.65;60.27
5413;BME280;2729;50.056;8.678;2023-05-02T11:53:21;100844.03;;;20.91;54.61
5413;BME280;2729;50.056;8.678;2023-05-02T11:56:00;100844.63;;;20.96;57.30
5413;BME280;2729;50.056;8.678;2023-05-02T11:58:30;100851.31;;;21.17;53.09
5413;BME280;2729;50.056;8.678;2023-05-02T12:00:58;100854.03;;;21.02;50.53
5413;BME280;2729;50.056;8.678;2023-05-02T12:03:29;100849.69;;;21.45;50.45
5413;BME280;2729;50.056;8.678;2023-05-02T12:06:10;100852.34;;;21.73;50.70
5413;BME280;2729;50.056;8.678;2023-05-02T12:08:36;100854.84;;;20.88;49.07
5413;BME280;2729;50.056;8.678;2023-05-02T12:11:02;100848.09;;;21.12;49.25
5413;BME280;2729;50.056;8.678;2023-05-02T12:13:29;100857.31;;;21.21;53.71
5413;BME280;2729;50.056;8.678;2023-05-02T12:15:55;100860.00;;;21.35;51.36
5413;BME280;2729;50.056;8.678;2023-05-02T12:18:23;100856.63;;;20.88;51.61
5413;BME280;2729;50.056;8.678;2023-05-02T12:20:53;100867.88;;;20.61;52.57
5413;BME280;2729;50.056;8.678;2023-05-02T12:23:23;100870.50;;;20.30;54.60
5413;BME280;2729;50.056;8.678;2023-05-02T12:25:49;100867.38;;;19.90;56.13
5413;BME280;2729;50.056;8.678;2023-05-02T12:28:19;100881.78;;;19.34;58.78
5413;BME280;2729;50.056;8.678;2023-05-02T12:30:49;100879.63;;;19.42;65.30
5413;BME280;2729;50.056;8.678;2023-05-02T12:33:16;100885.38;;;19.33;66.12
5413;BME280;2729;50.056;8.678;2023-05-02T12:35:43;100895.38;;;18.56;70.50
5413;BME280;2729;50.056;8.678;2023-05-02T12:38:19;100900.75;;;18.73;91.03
5413;BME280;2729;50.056;8.678;2023-05-02T12:40:52;100930.44;;;17.42;100.00
5413;BME280;2729;50.056;8.678;2023-05-02T12:43:22;100929.50;;;16.57;100.00
5413;BME280;2729;50.056;8.678;2023-05-02T12:45:48;100927.34;;;15.98;100.00
5413;BME280;2729;50.056;8.678;2023-05-02T12:48:24;100926.50;;;16.21;100.00
5413;BME280;2729;50.056;8.678;2023-05-02T12:50:51;100920.19;;;16.49;100.00
5413;BME280;2729;50.056;8.678;2023-05-02T12:53:42;100920.16;;;16.72;100.00
5413;BME280;2729;50.056;8.678;2023-05-02T12:56:09;100914.41;;;16.39;100.00
5413;BME280;2729;50.056;8.678;2023-05-02T12:58:47;100918.13;;;15.87;100.00
5413;BME280;2729;50.056;8.678;2023-05-02T13:01:14;100929.56;;;15.86;100.00
5413;BME280;2729;50.056;8.678;2023-05-02T13:03:41;100939.91;;;15.67;100.00
5413;BME280;2729;50.056;8.678;2023-05-02T13:06:07;100934.41;;;15.98;100.00
5413;BME280;2729;50.056;8.678;2023-05-02T13:08:34;100936.81;;;16.04;100.00
5413;BME280;2729;50.056;8.678;2023-05-02T13:11:01;100935.38;;;15.95;100.00
5413;BME280;2729;50.056;8.678;2023-05-02T13:13:28;100932.97;;;16.36;100.00
5413;BME280;2729;50.056;8.678;2023-05-02T13:15:54;100933.59;;;16.64;100.00
5413;BME280;2729;50.056;8.678;2023-05-02T13:18:20;100935.59;;;17.03;100.00
5413;BME280;2729;50.056;8.678;2023-05-02T13:20:46;100933.88;;;17.64;100.00
5413;BME280;2729;50.056;8.678;2023-05-02T13:23:12;100927.91;;;18.20;100.00
5413;BME280;2729;50.056;8.678;2023-05-02T13:25:38;100919.78;;;18.99;100.00
5413;BME280;2729;50.056;8.678;2023-05-02T13:28:04;100914.50;;;19.33;100.00
5413;BME280;2729;50.056;8.678;2023-05-02T13:30:31;100908.25;;;19.00;100.00
5413;BME280;2729;50.056;8.678;2023-05-02T13:32:57;100916.97;;;18.66;100.00
5413;BME280;2729;50.056;8.678;2023-05-02T13:35:23;100914.53;;;17.84;100.00
5413;BME280;2729;50.056;8.678;2023-05-02T13:37:52;100927.78;;;17.22;100.00
5413;BME280;2729;50.056;8.678;2023-05-02T13:40:18;100931.66;;;17.13;100.00
5413;BME280;2729;50.056;8.678;2023-05-02T13:42:44;100936.66;;;16.99;100.00
5413;BME280;2729;50.056;8.678;2023-05-02T13:45:10;100933.28;;;16.95;100.00
5413;BME280;2729;50.056;8.678;2023-05-02T13:47:37;100936.72;;;16.76;100.00